Time;durP1;ratioP1;P1;durP2;ratioP2;P2;SDS_P1;SDS_P2;PMS_P1;PMS_P2;Temp;Humidity;BMP_temperature;BMP_pressure;BME280_temperature;BME280_humidity;BME280_pressure;Samples;Min_cycle;Max_cycle;Signal;HPM_P1;HPM_P2
2022/07/19 00:02:07;;;;;;;;;;;;;;;;;;5033775;28;7001;-86
2022/07/19 00:04:34;;;;;;;;;;;;;;;;;;5033964;28;7324;-86
2022/07/19 00:06:59;;;;;;;;;;;;;;;;;;5034059;28;8436;-86
2022/07/19 00:09:26;;;;;;;;;;;;;;;;;;5033978;28;8316;-85
2022/07/19 00:11:52;;;;;;;;;;;;;;;;;;5033924;28;8704;-85
2022/07/19 00:14:18;;;;;;;;;;;;;;;;;;5034068;28;8742;-84
2022/07/19 00:16:44;;;;;;;;;;;;;;;;;;5034264;28;7047;-84
2022/07/19 00:19:09;;;;;;;;;;;;;;;;;;5035226;28;8381;-85
2022/07/19 00:21:35;;;;;;;;;;;;;;;;;;5033351;28;8338;-85
2022/07/19 00:24:00;;;;;;;;;;;;;;;;;;5033135;28;8789;-85
2022/07/19 00:26:26;;;;;;;;;;;;;;;;;;5034446;28;8403;-85
2022/07/19 00:28:54;;;;;;;;;;;;;;;;;;5033552;28;8437;-85
2022/07/19 00:31:21;;;;;;;;;;;;;;;;;;5033385;28;8515;-85
2022/07/19 00:33:47;;;;;;;;;;;;;;;;;;5033951;28;8731;-84
2022/07/19 00:36:13;;;;;;;;;;;;;;;;;;5033713;28;7051;-85
2022/07/19 00:38:39;;;;;;;;;;;;;;;;;;5033106;28;7043;-85
2022/07/19 00:41:04;;;;;;;;;;;;;;;;;;5033692;28;8631;-85
2022/07/19 00:43:31;;;;;;;;;;;;;;;;;;5033554;28;6988;-85
2022/07/19 00:45:56;;;;;;;;;;;;;;;;;;5033537;28;8432;-83
2022/07/19 00:48:22;;;;;;;;;;;;;;;;;;5033830;28;8708;-85
2022/07/19 00:50:48;;;;;;;;;;;;;;;;;;5032999;28;8087;-85
2022/07/19 00:53:14;;;;;;;;;;;;;;;;;;5032936;28;8420;-83
2022/07/19 00:55:41;;;;;;;;;;;;;;;;;;5033226;28;8426;-84
2022/07/19 00:58:08;;;;;;;;;;;;;;;;;;5035534;28;8599;-85
2022/07/19 01:00:34;;;;;;;;;;;;;;;;;;5037247;28;7251;-85
2022/07/19 01:03:01;;;;;;;;;;;;;;;;;;5037825;28;7180;-85
2022/07/19 01:05:27;;;;;;;;;;;;;;;;;;5037214;28;8409;-84
2022/07/19 01:07:53;;;;;;;;;;;;;;;;;;5037093;28;8580;-85
2022/07/19 01:10:18;;;;;;;;;;;;;;;;;;5037090;28;8526;-84
2022/07/19 01:12:45;;;;;;;;;;;;;;;;;;5037003;28;8333;-83
2022/07/19 01:15:13;;;;;;;;;;;;;;;;;;5036666;28;7173;-85
2022/07/19 01:17:39;;;;;;;;;;;;;;;;;;5053562;28;7065;-84
2022/07/19 01:20:05;;;;;;;;;;;;;;;;;;5036915;28;8573;-85
2022/07/19 01:22:30;;;;;;;;;;;;;;;;;;5037130;28;8637;-84
2022/07/19 01:24:56;;;;;;;;;;;;;;;;;;5036412;28;7222;-85
2022/07/19 01:27:21;;;;;;;;;;;;;;;;;;5036472;28;7024;-84
2022/07/19 01:29:47;;;;;;;;;;;;;;;;;;5036779;28;8675;-85
2022/07/19 01:32:12;;;;;;;;;;;;;;;;;;5037044;28;8433;-84
2022/07/19 01:34:38;;;;;;;;;;;;;;;;;;5036441;28;7131;-84
2022/07/19 01:37:03;;;;;;;;;;;;;;;;;;5036621;28;7055;-85
2022/07/19 01:39:29;;;;;;;;;;;;;;;;;;5036213;28;7173;-85
2022/07/19 01:41:54;;;;;;;;;;;;;;;;;;5036558;28;7287;-84
2022/07/19 01:44:20;;;;;;;;;;;;;;;;;;5036502;28;7141;-85
2022/07/19 01:46:45;;;;;;;;;;;;;;;;;;5037055;28;7142;-84
2022/07/19 01:49:11;;;;;;;;;;;;;;;;;;5036574;28;7180;-84
2022/07/19 01:51:36;;;;;;;;;;;;;;;;;;5036435;28;8466;-84
2022/07/19 01:54:02;;;;;;;;;;;;;;;;;;5036884;28;8310;-84
2022/07/19 01:56:27;;;;;;;;;;;;;;;;;;5036536;28;8676;-86
2022/07/19 01:58:53;;;;;;;;;;;;;;;;;;5036098;28;8446;-85
2022/07/19 02:01:18;;;;;;;;;;;;;;;;;;5037123;28;7090;-84
2022/07/19 02:03:44;;;;;;;;;;;;;;;;;;5036097;28;8401;-84
2022/07/19 02:06:09;;;;;;;;;;;;;;;;;;5035864;28;7026;-83
2022/07/19 02:08:35;;;;;;;;;;;;;;;;;;5035394;28;8417;-83
2022/07/19 02:11:34;;;;;;;;;;;;;;;;;;5035751;28;8738;-83
2022/07/19 02:13:45;;;;;;;;;;;;;;;;;;5036755;28;6868;-83
2022/07/19 02:16:11;;;;;;;;;;;;;;;;;;5036128;28;7008;-84
2022/07/19 02:18:37;;;;;;;;;;;;;;;;;;5035805;28;6974;-84
2022/07/19 02:21:02;;;;;;;;;;;;;;;;;;5035630;28;7332;-83
2022/07/19 02:23:28;;;;;;;;;;;;;;;;;;5035851;28;8614;-84
2022/07/19 02:25:53;;;;;;;;;;;;;;;;;;5035902;28;7037;-83
2022/07/19 02:28:19;;;;;;;;;;;;;;;;;;5035783;28;8699;-83
2022/07/19 02:30:44;;;;;;;;;;;;;;;;;;5035668;28;8403;-83
2022/07/19 02:33:10;;;;;;;;;;;;;;;;;;5035614;28;8590;-82
2022/07/19 02:35:35;;;;;;;;;;;;;;;;;;5035660;28;7045;-83
2022/07/19 02:38:01;;;;;;;;;;;;;;;;;;5035771;28;7113;-82
2022/07/19 02:40:26;;;;;;;;;;;;;;;;;;5035160;28;8417;-83
2022/07/19 02:42:52;;;;;;;;;;;;;;;;;;5035049;28;7086;-82
2022/07/19 02:45:18;;;;;;;;;;;;;;;;;;5035933;28;8424;-82
2022/07/19 02:47:43;;;;;;;;;;;;;;;;;;5035534;28;8445;-82
2022/07/19 02:50:09;;;;;;;;;;;;;;;;;;5035085;28;8412;-82
2022/07/19 02:52:35;;;;;;;;;;;;;;;;;;5035591;28;8427;-82
2022/07/19 02:55:01;;;;;;;;;;;;;;;;;;5034851;28;8383;-84
2022/07/19 02:57:26;;;;;;;;;;;;;;;;;;5036266;28;7085;-83
2022/07/19 02:59:52;;;;;;;;;;;;;;;;;;5034954;28;8633;-83
2022/07/19 03:02:18;;;;;;;;;;;;;;;;;;5034971;28;8502;-83
2022/07/19 03:04:43;;;;;;;;;;;;;;;;;;5034640;28;7151;-84
2022/07/19 03:07:09;;;;;;;;;;;;;;;;;;5035012;28;8688;-84
2022/07/19 03:09:34;;;;;;;;;;;;;;;;;;5034635;28;7141;-84
2022/07/19 03:12:00;;;;;;;;;;;;;;;;;;5035314;28;7129;-84
2022/07/19 03:14:27;;;;;;;;;;;;;;;;;;5034911;28;7534;-83
2022/07/19 03:16:53;;;;;;;;;;;;;;;;;;5034851;28;8392;-83
2022/07/19 03:19:18;;;;;;;;;;;;;;;;;;5025749;28;7156;-83
2022/07/19 03:21:44;;;;;;;;;;;;;;;;;;5024249;28;7426;-84
2022/07/19 03:24:09;;;;;;;;;;;;;;;;;;5025107;28;8438;-84
2022/07/19 03:26:35;;;;;;;;;;;;;;;;;;5025465;28;8699;-84
2022/07/19 03:29:00;;;;;;;;;;;;;;;;;;5023988;28;8636;-84
2022/07/19 03:31:26;;;;;;;;;;;;;;;;;;5023789;28;7154;-82
2022/07/19 03:33:51;;;;;;;;;;;;;;;;;;5022448;28;7164;-81
2022/07/19 03:36:17;;;;;;;;;;;;;;;;;;5023165;28;8441;-82
2022/07/19 03:38:42;;;;;;;;;;;;;;;;;;5022641;28;8426;-83
2022/07/19 03:41:08;;;;;;;;;;;;;;;;;;5023090;28;8438;-85
2022/07/19 03:43:33;;;;;;;;;;;;;;;;;;5025111;28;7073;-85
2022/07/19 03:45:59;;;;;;;;;;;;;;;;;;5023126;28;8810;-86
2022/07/19 03:48:24;;;;;;;;;;;;;;;;;;5023802;28;7256;-85
2022/07/19 03:50:50;;;;;;;;;;;;;;;;;;5024772;28;8431;-85
2022/07/19 03:53:15;;;;;;;;;;;;;;;;;;5033992;28;7249;-86
2022/07/19 03:55:41;;;;;;;;;;;;;;;;;;5022522;28;7144;-85
2022/07/19 03:58:06;;;;;;;;;;;;;;;;;;5024055;28;7136;-85
2022/07/19 04:00:32;;;;;;;;;;;;;;;;;;5024847;28;7173;-85
2022/07/19 04:02:57;;;;;;;;;;;;;;;;;;5024384;28;8795;-85
2022/07/19 04:05:23;;;;;;;;;;;;;;;;;;5025518;28;7195;-85
2022/07/19 04:07:49;;;;;;;;;;;;;;;;;;5023424;28;8475;-85
2022/07/19 04:10:14;;;;;;;;;;;;;;;;;;5024293;28;7170;-85
2022/07/19 04:12:40;;;;;;;;;;;;;;;;;;5022104;28;8455;-84
2022/07/19 04:15:06;;;;;;;;;;;;;;;;;;5021632;28;7265;-84
2022/07/19 04:17:31;;;;;;;;;;;;;;;;;;5023989;28;8833;-83
2022/07/19 04:19:57;;;;;;;;;;;;;;;;;;5022402;28;8972;-83
2022/07/19 04:22:23;;;;;;;;;;;;;;;;;;5024064;28;8540;-80
2022/07/19 04:24:50;;;;;;;;;;;;;;;;;;5023467;28;7178;-81
2022/07/19 04:27:15;;;;;;;;;;;;;;;;;;5022341;28;7021;-81
2022/07/19 04:29:41;;;;;;;;;;;;;;;;;;5022336;28;8296;-80
2022/07/19 04:32:06;;;;;;;;;;;;;;;;;;5024345;28;6833;-78
2022/07/19 04:34:32;;;;;;;;;;;;;;;;;;5027625;28;7073;-78
2022/07/19 04:36:57;;;;;;;;;;;;;;;;;;5026210;28;8462;-78
2022/07/19 04:39:22;;;;;;;;;;;;;;;;;;5027985;28;8656;-78
2022/07/19 04:41:48;;;;;;;;;;;;;;;;;;5028462;28;8485;-78
2022/07/19 04:44:13;;;;;;;;;;;;;;;;;;5027879;28;8550;-78
2022/07/19 04:46:39;;;;;;;;;;;;;;;;;;5026276;28;8625;-78
2022/07/19 04:49:05;;;;;;;;;;;;;;;;;;5027452;28;7160;-78
2022/07/19 04:51:33;;;;;;;;;;;;;;;;;;5025273;28;7273;-78
2022/07/19 04:53:59;;;;;;;;;;;;;;;;;;5028248;28;7067;-82
2022/07/19 04:56:24;;;;;;;;;;;;;;;;;;5027816;28;7096;-82
2022/07/19 04:58:50;;;;;;;;;;;;;;;;;;5032486;28;8402;-81
2022/07/19 05:01:15;;;;;;;;;;;;;;;;;;5036851;28;8375;-82
2022/07/19 05:03:41;;;;;;;;;;;;;;;;;;5037751;28;8438;-84
2022/07/19 05:06:06;;;;;;;;;;;;;;;;;;5033651;28;8800;-84
2022/07/19 05:08:31;;;;;;;;;;;;;;;;;;5026472;28;7164;-85
2022/07/19 05:10:57;;;;;;;;;;;;;;;;;;5026855;28;7023;-82
2022/07/19 05:13:22;;;;;;;;;;;;;;;;;;5026893;28;8780;-84
2022/07/19 05:15:48;;;;;;;;;;;;;;;;;;5024054;28;8470;-84
2022/07/19 05:18:13;;;;;;;;;;;;;;;;;;5028710;28;7364;-84
2022/07/19 05:20:39;;;;;;;;;;;;;;;;;;5036843;28;8454;-84
2022/07/19 05:23:04;;;;;;;;;;;;;;;;;;5037392;28;9411;-83
2022/07/19 05:25:30;;;;;;;;;;;;;;;;;;5037231;28;7173;-84
2022/07/19 05:27:56;;;;;;;;;;;;;;;;;;5036886;28;8584;-79
2022/07/19 05:30:22;;;;;;;;;;;;;;;;;;5036922;28;8371;-84
2022/07/19 05:32:48;;;;;;;;;;;;;;;;;;5036914;28;8600;-82
2022/07/19 05:35:14;;;;;;;;;;;;;;;;;;5036652;28;8368;-79
2022/07/19 05:37:40;;;;;;;;;;;;;;;;;;5036140;28;7333;-79
2022/07/19 05:40:06;;;;;;;;;;;;;;;;;;5030264;28;7040;-80
2022/07/19 05:42:31;;;;;;;;;;;;;;;;;;5024261;28;7070;-82
2022/07/19 05:44:56;;;;;;;;;;;;;;;;;;5031971;28;8768;-82
2022/07/19 05:47:22;;;;;;;;;;;;;;;;;;5031946;28;7199;-82
2022/07/19 05:49:47;;;;;;;;;;;;;;;;;;5041765;28;8572;-81
2022/07/19 05:52:13;;;;;;;;;;;;;;;;;;5034394;28;7249;-81
2022/07/19 05:54:38;;;;;;;;;;;;;;;;;;5051797;28;8477;-81
2022/07/19 05:57:04;;;;;;;;;;;;;;;;;;5050805;28;7198;-82
2022/07/19 05:59:29;;;;;;;;;;;;;;;;;;5051904;28;8434;-82
2022/07/19 06:01:55;;;;;;;;;;;;;;;;;;5052688;28;7181;-81
2022/07/19 06:04:21;;;;;;;;;;;;;;;;;;5043084;28;7308;-84
2022/07/19 06:06:46;;;;;;;;;;;;;;;;;;5053106;28;8485;-82
2022/07/19 06:09:12;;;;;;;;;;;;;;;;;;5052821;28;7334;-80
2022/07/19 06:11:40;;;;;;;;;;;;;;;;;;5050971;28;8693;-81
2022/07/19 06:14:08;;;;;;;;;;;;;;;;;;5050272;28;8471;-82
2022/07/19 06:16:33;;;;;;;;;;;;;;;;;;5050217;28;7034;-81
2022/07/19 06:18:59;;;;;;;;;;;;;;;;;;5050498;28;7188;-77
2022/07/19 06:21:24;;;;;;;;;;;;;;;;;;5050879;28;8621;-82
2022/07/19 06:23:50;;;;;;;;;;;;;;;;;;5049584;28;8450;-81
2022/07/19 06:26:16;;;;;;;;;;;;;;;;;;5051396;28;8482;-82
2022/07/19 06:28:42;;;;;;;;;;;;;;;;;;5051419;28;8547;-82
2022/07/19 06:31:09;;;;;;;;;;;;;;;;;;5050937;28;7194;-83
2022/07/19 06:33:34;;;;;;;;;;;;;;;;;;5050638;28;8987;-81
2022/07/19 06:35:59;;;;;;;;;;;;;;;;;;5050463;28;7152;-83
2022/07/19 06:38:26;;;;;;;;;;;;;;;;;;5050059;28;7181;-80
2022/07/19 06:40:52;;;;;;;;;;;;;;;;;;5050156;28;8842;-83
2022/07/19 06:43:17;;;;;;;;;;;;;;;;;;5034258;28;8508;-83
2022/07/19 06:45:43;;;;;;;;;;;;;;;;;;5034234;28;8444;-82
2022/07/19 06:48:08;;;;;;;;;;;;;;;;;;5034810;28;7239;-82
2022/07/19 06:50:34;;;;;;;;;;;;;;;;;;5034318;28;7215;-80
2022/07/19 06:52:59;;;;;;;;;;;;;;;;;;5033614;28;7067;-80
2022/07/19 06:55:25;;;;;;;;;;;;;;;;;;5033562;28;8496;-81
2022/07/19 06:57:51;;;;;;;;;;;;;;;;;;5033802;28;7054;-83
2022/07/19 07:00:16;;;;;;;;;;;;;;;;;;5033357;28;8739;-82
2022/07/19 07:02:43;;;;;;;;;;;;;;;;;;5033150;28;8504;-82
2022/07/19 07:05:11;;;;;;;;;;;;;;;;;;5034028;28;7250;-84
2022/07/19 07:07:36;;;;;;;;;;;;;;;;;;5035407;28;8593;-82
2022/07/19 07:10:04;;;;;;;;;;;;;;;;;;5013936;28;7088;-80
2022/07/19 07:12:29;;;;;;;;;;;;;;;;;;5013529;28;7238;-83
2022/07/19 07:14:55;;;;;;;;;;;;;;;;;;5014240;28;8697;-84
2022/07/19 07:17:21;;;;;;;;;;;;;;;;;;5013431;28;8423;-82
2022/07/19 07:19:46;;;;;;;;;;;;;;;;;;5013987;28;7223;-85
2022/07/19 07:22:12;;;;;;;;;;;;;;;;;;5013370;28;7485;-82
2022/07/19 07:24:37;;;;;;;;;;;;;;;;;;5013051;28;7374;-81
2022/07/19 07:27:03;;;;;;;;;;;;;;;;;;5013283;28;8756;-82
2022/07/19 07:29:29;;;;;;;;;;;;;;;;;;5013305;28;8820;-81
2022/07/19 07:31:55;;;;;;;;;;;;;;;;;;5012407;28;8413;-82
2022/07/19 07:34:20;;;;;;;;;;;;;;;;;;5013048;28;7382;-81
2022/07/19 07:36:46;;;;;;;;;;;;;;;;;;5013925;28;8629;-82
2022/07/19 07:39:12;;;;;;;;;;;;;;;;;;5013492;28;8615;-83
2022/07/19 07:41:37;;;;;;;;;;;;;;;;;;5012753;28;8674;-83
2022/07/19 07:44:03;;;;;;;;;;;;;;;;;;5012558;28;8591;-83
2022/07/19 07:46:29;;;;;;;;;;;;;;;;;;5025146;28;8495;-84
2022/07/19 07:48:55;;;;;;;;;;;;;;;;;;5033108;28;8404;-82
2022/07/19 07:51:20;;;;;;;;;;;;;;;;;;5032969;28;8774;-83
2022/07/19 07:53:46;;;;;;;;;;;;;;;;;;5027264;28;7286;-82
2022/07/19 07:56:11;;;;;;;;;;;;;;;;;;5029735;28;8495;-84
2022/07/19 07:58:37;;;;;;;;;;;;;;;;;;5028877;28;7731;-82
2022/07/19 08:01:03;;;;;;;;;;;;;;;;;;5029446;28;8772;-79
2022/07/19 08:03:28;;;;;;;;;;;;;;;;;;5029100;28;7241;-80
2022/07/19 08:05:57;;;;;;;;;;;;;;;;;;5038986;28;8791;-83
2022/07/19 08:08:26;;;;;;;;;;;;;;;;;;5048641;28;8802;-83
2022/07/19 08:10:56;;;;;;;;;;;;;;;;;;5049197;28;8407;-84
2022/07/19 08:13:22;;;;;;;;;;;;;;;;;;5049525;28;7055;-84
2022/07/19 08:15:47;;;;;;;;;;;;;;;;;;5048945;28;8475;-83
2022/07/19 08:18:13;;;;;;;;;;;;;;;;;;5049256;28;8731;-84
2022/07/19 08:20:38;;;;;;;;;;;;;;;;;;5048502;28;8807;-84
2022/07/19 08:23:04;;;;;;;;;;;;;;;;;;5048668;28;7234;-85
2022/07/19 08:25:32;;;;;;;;;;;;;;;;;;5049055;28;7230;-85
2022/07/19 08:27:57;;;;;;;;;;;;;;;;;;5048739;28;8938;-83
2022/07/19 08:30:23;;;;;;;;;;;;;;;;;;5049603;28;7232;-84
2022/07/19 08:32:48;;;;;;;;;;;;;;;;;;5049740;28;7132;-83
2022/07/19 08:35:15;;;;;;;;;;;;;;;;;;5048443;28;8722;-82
2022/07/19 08:37:40;;;;;;;;;;;;;;;;;;5048937;28;7157;-83
2022/07/19 08:40:07;;;;;;;;;;;;;;;;;;5049299;28;7126;-82
2022/07/19 08:42:34;;;;;;;;;;;;;;;;;;5048863;28;8579;-86
2022/07/19 08:45:00;;;;;;;;;;;;;;;;;;5048701;28;8565;-84
2022/07/19 08:47:26;;;;;;;;;;;;;;;;;;5049137;28;8756;-84
2022/07/19 08:49:52;;;;;;;;;;;;;;;;;;5045363;28;8524;-85
2022/07/19 08:52:19;;;;;;;;;;;;;;;;;;5012226;28;8460;-84
2022/07/19 08:54:45;;;;;;;;;;;;;;;;;;5012053;28;8593;-84
2022/07/19 08:59:55;;;;;;;;;;;;;;;;;;5013557;28;7092;-84
2022/07/19 09:02:20;;;;;;;;;;;;;;;;;;5012189;28;8527;-84
2022/07/19 09:04:59;;;;;;;;;;;;;;;;;;5011846;28;7149;-84
2022/07/19 09:07:25;;;;;;;;;;;;;;;;;;5012694;28;8644;-84
2022/07/19 09:09:50;;;;;;;;;;;;;;;;;;5012550;28;8618;-85
2022/07/19 09:12:16;;;;;;;;;;;;;;;;;;5011876;28;8522;-83
2022/07/19 09:14:41;;;;;;;;;;;;;;;;;;5012231;28;8684;-86
2022/07/19 09:17:16;;;;;;;;;;;;;;;;;;5012614;28;7517;-84
2022/07/19 09:19:46;;;;;;;;;;;;;;;;;;5015473;28;8541;-84
2022/07/19 09:22:14;;;;;;;;;;;;;;;;;;5015336;28;8975;-85
2022/07/19 09:24:41;;;;;;;;;;;;;;;;;;5016033;28;8724;-85
2022/07/19 09:27:06;;;;;;;;;;;;;;;;;;5015781;28;8814;-85
2022/07/19 09:29:33;;;;;;;;;;;;;;;;;;5033004;28;8526;-85
2022/07/19 09:32:18;;;;;;;;;;;;;;;;;;5015390;28;8686;-86
2022/07/19 09:34:55;;;;;;;;;;;;;;;;;;5016036;28;8579;-84
2022/07/19 09:37:22;;;;;;;;;;;;;;;;;;5015822;28;7322;-86
2022/07/19 09:39:52;;;;;;;;;;;;;;;;;;5015899;28;8641;-86
2022/07/19 09:42:23;;;;;;;;;;;;;;;;;;5014848;28;7572;-85
2022/07/19 09:44:59;;;;;;;;;;;;;;;;;;5015236;28;9094;-85
2022/07/19 09:47:35;;;;;;;;;;;;;;;;;;5015914;28;8552;-85
2022/07/19 09:50:02;;;;;;;;;;;;;;;;;;5015795;28;8810;-85
2022/07/19 09:52:29;;;;;;;;;;;;;;;;;;5015073;28;9275;-87
2022/07/19 09:54:55;;;;;;;;;;;;;;;;;;5015064;28;8634;-87
2022/07/19 09:57:23;;;;;;;;;;;;;;;;;;5015352;28;9452;-86
2022/07/19 09:59:50;;;;;;;;;;;;;;;;;;5016242;28;7388;-88
2022/07/19 10:02:20;;;;;;;;;;;;;;;;;;5014627;28;8913;-86
2022/07/19 10:04:45;;;;;;;;;;;;;;;;;;5015762;28;8620;-86
2022/07/19 10:07:13;;;;;;;;;;;;;;;;;;5015586;28;8490;-85
2022/07/19 10:09:39;;;;;;;;;;;;;;;;;;5015446;28;9656;-85
2022/07/19 10:12:05;;;;;;;;;;;;;;;;;;5014454;28;8734;-86
2022/07/19 10:14:32;;;;;;;;;;;;;;;;;;5014609;28;8549;-85
2022/07/19 10:17:16;;;;;;;;;;;;;;;;;;5015433;28;9255;-84
2022/07/19 10:19:48;;;;;;;;;;;;;;;;;;5048151;28;7255;-83
2022/07/19 10:22:15;;;;;;;;;;;;;;;;;;5033245;28;8739;-84
2022/07/19 10:24:41;;;;;;;;;;;;;;;;;;5032943;28;8540;-84
2022/07/19 10:27:08;;;;;;;;;;;;;;;;;;5034261;28;7180;-83
2022/07/19 10:29:33;;;;;;;;;;;;;;;;;;5034218;28;8616;-84
2022/07/19 10:32:11;;;;;;;;;;;;;;;;;;5034425;28;7415;-85
2022/07/19 10:34:37;;;;;;;;;;;;;;;;;;5043557;28;8772;-81
2022/07/19 10:37:03;;;;;;;;;;;;;;;;;;5034253;28;8794;-81
2022/07/19 10:39:39;;;;;;;;;;;;;;;;;;5034087;28;8997;-81
2022/07/19 10:42:10;;;;;;;;;;;;;;;;;;5034389;28;8893;-81
2022/07/19 10:44:59;;;;;;;;;;;;;;;;;;5033451;28;8633;-82
2022/07/19 10:47:37;;;;;;;;;;;;;;;;;;5034375;28;9002;-82
2022/07/19 10:50:04;;;;;;;;;;;;;;;;;;5034490;28;8880;-80
2022/07/19 10:52:35;;;;;;;;;;;;;;;;;;5034818;28;8536;-86
2022/07/19 10:55:16;;;;;;;;;;;;;;;;;;5035092;28;7455;-89
2022/07/19 10:57:43;;;;;;;;;;;;;;;;;;5035024;28;8980;-83
2022/07/19 11:00:24;;;;;;;;;;;;;;;;;;5034386;28;8568;-88
2022/07/19 11:02:51;;;;;;;;;;;;;;;;;;5034143;28;8748;-84
2022/07/19 11:05:24;;;;;;;;;;;;;;;;;;5033891;28;8520;-88
2022/07/19 11:07:51;;;;;;;;;;;;;;;;;;5035113;28;8493;-82
2022/07/19 11:10:27;;;;;;;;;;;;;;;;;;5034477;28;8590;-84
2022/07/19 11:12:54;;;;;;;;;;;;;;;;;;5034380;28;8599;-86
2022/07/19 11:15:19;;;;;;;;;;;;;;;;;;5034412;28;8762;-86
2022/07/19 11:18:03;;;;;;;;;;;;;;;;;;5034417;28;8904;-87
2022/07/19 11:20:35;;;;;;;;;;;;;;;;;;5035025;28;8626;-87
2022/07/19 11:23:03;;;;;;;;;;;;;;;;;;5035387;28;8547;-84
2022/07/19 11:25:38;;;;;;;;;;;;;;;;;;5037039;28;8468;-86
2022/07/19 11:28:04;;;;;;;;;;;;;;;;;;5038366;28;7167;-87
2022/07/19 11:30:35;;;;;;;;;;;;;;;;;;5033777;28;8725;-85
2022/07/19 11:33:03;;;;;;;;;;;;;;;;;;5021164;28;8549;-86
2022/07/19 11:35:29;;;;;;;;;;;;;;;;;;5019650;28;8564;-84
2022/07/19 11:37:56;;;;;;;;;;;;;;;;;;5020768;28;8909;-87
2022/07/19 11:40:23;;;;;;;;;;;;;;;;;;5024920;28;8661;-84
2022/07/19 11:42:49;;;;;;;;;;;;;;;;;;5024680;28;7245;-85
2022/07/19 11:45:16;;;;;;;;;;;;;;;;;;5031173;28;8575;-85
2022/07/19 11:47:44;;;;;;;;;;;;;;;;;;5029542;28;8859;-87
2022/07/19 11:50:10;;;;;;;;;;;;;;;;;;5013422;28;7313;-85
2022/07/19 11:52:43;;;;;;;;;;;;;;;;;;5017489;28;7189;-82
2022/07/19 11:55:10;;;;;;;;;;;;;;;;;;5027950;28;8672;-85
2022/07/19 11:57:36;;;;;;;;;;;;;;;;;;5024493;28;8880;-87
2022/07/19 12:00:02;;;;;;;;;;;;;;;;;;5031362;28;8579;-87
2022/07/19 12:02:28;;;;;;;;;;;;;;;;;;5025823;28;8578;-87
2022/07/19 12:04:53;;;;;;;;;;;;;;;;;;5032886;28;8743;-86
2022/07/19 12:07:19;;;;;;;;;;;;;;;;;;5024962;28;9033;-83
2022/07/19 12:09:45;;;;;;;;;;;;;;;;;;5019894;28;9065;-85
2022/07/19 12:12:15;;;;;;;;;;;;;;;;;;5031466;28;8662;-86
2022/07/19 12:14:42;;;;;;;;;;;;;;;;;;5031180;28;8585;-86
2022/07/19 12:17:18;;;;;;;;;;;;;;;;;;5029900;28;8543;-85
2022/07/19 12:19:46;;;;;;;;;;;;;;;;;;5015581;28;7191;-88
2022/07/19 12:22:27;;;;;;;;;;;;;;;;;;5013026;28;8524;-86
2022/07/19 12:24:53;;;;;;;;;;;;;;;;;;5013975;28;7157;-87
2022/07/19 12:27:20;;;;;;;;;;;;;;;;;;5023598;28;7228;-86
2022/07/19 12:29:49;;;;;;;;;;;;;;;;;;5037805;28;9133;-86
2022/07/19 12:32:16;;;;;;;;;;;;;;;;;;5031644;28;8609;-85
2022/07/19 12:34:48;;;;;;;;;;;;;;;;;;5020764;28;8657;-86
2022/07/19 12:37:21;;;;;;;;;;;;;;;;;;5022872;28;8567;-88
2022/07/19 12:39:58;;;;;;;;;;;;;;;;;;5020438;28;8753;-85
2022/07/19 12:42:24;;;;;;;;;;;;;;;;;;5019600;28;7406;-83
2022/07/19 12:44:49;;;;;;;;;;;;;;;;;;5018055;28;8579;-86
2022/07/19 12:47:15;;;;;;;;;;;;;;;;;;5033791;28;8526;-85
2022/07/19 12:49:45;;;;;;;;;;;;;;;;;;5033604;28;8665;-86
2022/07/19 12:52:11;;;;;;;;;;;;;;;;;;5034351;28;9017;-84
2022/07/19 12:54:38;;;;;;;;;;;;;;;;;;5036008;28;8816;-85
2022/07/19 12:57:03;;;;;;;;;;;;;;;;;;5037069;28;8899;-89
2022/07/19 12:59:41;;;;;;;;;;;;;;;;;;5037739;28;8429;-84
2022/07/19 13:02:11;;;;;;;;;;;;;;;;;;5034061;28;9478;-83
2022/07/19 13:04:39;;;;;;;;;;;;;;;;;;5037608;28;8579;-85
2022/07/19 13:07:05;;;;;;;;;;;;;;;;;;5039448;28;8562;-86
2022/07/19 13:09:31;;;;;;;;;;;;;;;;;;5035970;28;8843;-84
2022/07/19 13:11:56;;;;;;;;;;;;;;;;;;5036115;28;7169;-86
2022/07/19 13:14:23;;;;;;;;;;;;;;;;;;5035366;28;7150;-87
2022/07/19 13:16:49;;;;;;;;;;;;;;;;;;5035610;28;7373;-88
2022/07/19 13:19:15;;;;;;;;;;;;;;;;;;5032560;28;8518;-82
2022/07/19 13:21:40;;;;;;;;;;;;;;;;;;5027675;28;8890;-84
2022/07/19 13:24:06;;;;;;;;;;;;;;;;;;5042343;28;8493;-80
2022/07/19 13:26:31;;;;;;;;;;;;;;;;;;5023033;28;8657;-88
2022/07/19 13:28:57;;;;;;;;;;;;;;;;;;5015818;28;8908;-87
2022/07/19 13:31:22;;;;;;;;;;;;;;;;;;5033751;28;8510;-86
2022/07/19 13:33:48;;;;;;;;;;;;;;;;;;5032012;28;7402;-87
2022/07/19 13:36:13;;;;;;;;;;;;;;;;;;5031997;28;7177;-82
2022/07/19 13:38:40;;;;;;;;;;;;;;;;;;5033863;28;8527;-84
2022/07/19 13:41:06;;;;;;;;;;;;;;;;;;5034037;28;8793;-87
2022/07/19 13:43:32;;;;;;;;;;;;;;;;;;5026259;28;8551;-88
2022/07/19 13:45:59;;;;;;;;;;;;;;;;;;5025117;28;8619;-87
2022/07/19 13:48:25;;;;;;;;;;;;;;;;;;5024398;28;8969;-85
2022/07/19 13:50:51;;;;;;;;;;;;;;;;;;5033308;28;8796;-88
2022/07/19 13:53:16;;;;;;;;;;;;;;;;;;5023593;28;7269;-88
2022/07/19 13:55:41;;;;;;;;;;;;;;;;;;5033040;28;7283;-86
2022/07/19 13:58:07;;;;;;;;;;;;;;;;;;5024404;28;8566;-86
2022/07/19 14:00:32;;;;;;;;;;;;;;;;;;5035091;28;7287;-87
2022/07/19 14:02:58;;;;;;;;;;;;;;;;;;5036428;28;8625;-85
2022/07/19 14:05:23;;;;;;;;;;;;;;;;;;5022481;28;7220;-85
2022/07/19 14:07:49;;;;;;;;;;;;;;;;;;5033689;28;8770;-87
2022/07/19 14:10:14;;;;;;;;;;;;;;;;;;5030628;28;8869;-84
2022/07/19 14:12:40;;;;;;;;;;;;;;;;;;5027386;28;8709;-87
2022/07/19 14:15:06;;;;;;;;;;;;;;;;;;5033122;28;9135;-86
2022/07/19 14:17:31;;;;;;;;;;;;;;;;;;5033180;28;8602;-87
2022/07/19 14:19:57;;;;;;;;;;;;;;;;;;5024924;28;8570;-87
2022/07/19 14:22:22;;;;;;;;;;;;;;;;;;5021715;28;8540;-82
2022/07/19 14:24:48;;;;;;;;;;;;;;;;;;5024019;28;8578;-82
2022/07/19 14:27:13;;;;;;;;;;;;;;;;;;5032028;28;8716;-86
2022/07/19 14:29:39;;;;;;;;;;;;;;;;;;5027458;28;7303;-87
2022/07/19 14:32:05;;;;;;;;;;;;;;;;;;5021452;28;8445;-87
2022/07/19 14:34:31;;;;;;;;;;;;;;;;;;5020748;28;8950;-88
2022/07/19 14:36:57;;;;;;;;;;;;;;;;;;5033435;28;8844;-88
2022/07/19 14:39:23;;;;;;;;;;;;;;;;;;5034034;28;8107;-87
2022/07/19 14:41:48;;;;;;;;;;;;;;;;;;5032384;28;7517;-84
2022/07/19 14:44:14;;;;;;;;;;;;;;;;;;5035597;28;8519;-87
2022/07/19 14:46:40;;;;;;;;;;;;;;;;;;5035044;28;8847;-88
2022/07/19 14:49:05;;;;;;;;;;;;;;;;;;5033649;28;8757;-86
2022/07/19 14:51:30;;;;;;;;;;;;;;;;;;5036791;28;9372;-84
2022/07/19 14:53:56;;;;;;;;;;;;;;;;;;5035004;28;9463;-86
2022/07/19 14:56:21;;;;;;;;;;;;;;;;;;5035604;28;7269;-87
2022/07/19 14:58:47;;;;;;;;;;;;;;;;;;5034956;28;7284;-81
2022/07/19 15:01:12;;;;;;;;;;;;;;;;;;5040542;28;8632;-86
2022/07/19 15:03:38;;;;;;;;;;;;;;;;;;5034508;28;7492;-87
2022/07/19 15:06:03;;;;;;;;;;;;;;;;;;5032867;28;8643;-88
2022/07/19 15:08:29;;;;;;;;;;;;;;;;;;5035008;28;8447;-87
2022/07/19 15:10:54;;;;;;;;;;;;;;;;;;5035780;28;8494;-88
2022/07/19 15:13:20;;;;;;;;;;;;;;;;;;5034721;28;8567;-89
2022/07/19 15:15:46;;;;;;;;;;;;;;;;;;5032306;28;7274;-84
2022/07/19 15:18:12;;;;;;;;;;;;;;;;;;5035160;28;7275;-87
2022/07/19 15:20:39;;;;;;;;;;;;;;;;;;5032043;28;8782;-86
2022/07/19 15:23:05;;;;;;;;;;;;;;;;;;5034331;28;8561;-87
2022/07/19 15:25:31;;;;;;;;;;;;;;;;;;5034577;28;8877;-87
2022/07/19 15:27:57;;;;;;;;;;;;;;;;;;5030358;28;8581;-86
2022/07/19 15:30:23;;;;;;;;;;;;;;;;;;5023752;28;8511;-86
2022/07/19 15:32:48;;;;;;;;;;;;;;;;;;5012593;28;8613;-85
2022/07/19 15:35:14;;;;;;;;;;;;;;;;;;5025390;28;8643;-85
2022/07/19 15:37:40;;;;;;;;;;;;;;;;;;5033633;28;8574;-87
2022/07/19 15:40:06;;;;;;;;;;;;;;;;;;5032888;28;8514;-84
2022/07/19 15:42:41;;;;;;;;;;;;;;;;;;5033112;28;7321;-87
2022/07/19 15:45:07;;;;;;;;;;;;;;;;;;5033100;28;8517;-88
2022/07/19 15:47:32;;;;;;;;;;;;;;;;;;5032948;28;7540;-86
2022/07/19 15:49:57;;;;;;;;;;;;;;;;;;5033106;28;8592;-86
2022/07/19 15:52:23;;;;;;;;;;;;;;;;;;5032341;28;9467;-84
2022/07/19 15:54:48;;;;;;;;;;;;;;;;;;5036688;28;8532;-87
2022/07/19 15:57:14;;;;;;;;;;;;;;;;;;5033090;28;8815;-88
2022/07/19 15:59:39;;;;;;;;;;;;;;;;;;5033781;28;7253;-86
2022/07/19 16:02:05;;;;;;;;;;;;;;;;;;5033786;28;8602;-86
2022/07/19 16:04:30;;;;;;;;;;;;;;;;;;5034083;28;8718;-88
2022/07/19 16:06:57;;;;;;;;;;;;;;;;;;5033901;28;9478;-87
2022/07/19 16:09:22;;;;;;;;;;;;;;;;;;5033443;28;8759;-87
2022/07/19 16:11:48;;;;;;;;;;;;;;;;;;5033665;28;8968;-86
2022/07/19 16:14:13;;;;;;;;;;;;;;;;;;5036800;28;8853;-81
2022/07/19 16:16:39;;;;;;;;;;;;;;;;;;5037867;28;8561;-87
2022/07/19 16:19:05;;;;;;;;;;;;;;;;;;5033593;28;8599;-89
2022/07/19 16:21:30;;;;;;;;;;;;;;;;;;5033544;28;7335;-88
2022/07/19 16:23:56;;;;;;;;;;;;;;;;;;5033663;28;8529;-86
2022/07/19 16:26:22;;;;;;;;;;;;;;;;;;5033181;28;8511;-86
2022/07/19 16:28:48;;;;;;;;;;;;;;;;;;5032689;28;8557;-85
2022/07/19 16:31:14;;;;;;;;;;;;;;;;;;5033264;28;8767;-86
2022/07/19 16:33:39;;;;;;;;;;;;;;;;;;5035485;28;8874;-80
2022/07/19 16:36:05;;;;;;;;;;;;;;;;;;5035189;28;8579;-88
2022/07/19 16:38:30;;;;;;;;;;;;;;;;;;5034631;28;9423;-87
2022/07/19 16:40:56;;;;;;;;;;;;;;;;;;5034303;28;9056;-88
2022/07/19 16:43:21;;;;;;;;;;;;;;;;;;5033485;28;8513;-88
2022/07/19 16:45:47;;;;;;;;;;;;;;;;;;5037526;28;8570;-87
2022/07/19 16:48:13;;;;;;;;;;;;;;;;;;5034338;28;8550;-87
2022/07/19 16:50:40;;;;;;;;;;;;;;;;;;5033509;28;8823;-88
2022/07/19 16:53:07;;;;;;;;;;;;;;;;;;5033552;28;7272;-87
2022/07/19 16:55:33;;;;;;;;;;;;;;;;;;5032776;28;8503;-87
2022/07/19 16:57:59;;;;;;;;;;;;;;;;;;5033006;28;7143;-86
2022/07/19 17:00:24;;;;;;;;;;;;;;;;;;5033566;28;8701;-88
2022/07/19 17:02:50;;;;;;;;;;;;;;;;;;5033289;28;8502;-87